Sevilla La Nueva, Spain
Current Conditions -  °F | °C
As of 8:00 PM on Saturday 20 Dec 2014 (Local Time) from LEVS Reporting Station
Clear Clear  
Wind Chill: 48°   Ceiling: Unl
Heat Index: 48°   Visibility: 6mi
Dew Point: 41°   Wind: 2mph
Humidity: 76%   Direction: NA
Pressure: 30.5"   Gusts: NA
Location:  40.35°N, 4.03°W
Report Text: LEVS 201900Z VRB02KT CAVOK 09/05 Q1033
Loading
Personal Weather Stations






























Interactive Weather Map New forecast layout! Learn more

10-Day Weather Forecast

Advertisements
Track Severe Weather on mobile